SBCZ/CZS METAR and TAF weather

Enter ICAO airport designator
Station Type Date Time Source
SBCZ METAR 2021/05/14 22:00 UTC NOAA

SBCZ 142200Z 13003KT 9999 OVC018 24/23 Q1012


Station Type Date Time Source
SBCZ Decoded METAR 2021/05/14 22:00 UTC NOAA

Cruzeiro Do Sul, Brazil (SBCZ) 07-38S 072-40W
May 14, 2021 - 06:00 PM EDT / 2021.05.14 2200 UTC
Wind: from the SE (130 degrees) at 3 MPH (3 KT):0
Visibility: greater than 7 mile(s):0
Sky conditions: overcast
Temperature: 75 F (24 C)
Dew Point: 73 F (23 C)
Relative Humidity: 94%
Pressure (altimeter): 29.88 in. Hg (1012 hPa)
ob: SBCZ 142200Z 13003KT 9999 OVC018 24/23 Q1012
cycle: 22

Station Type Date Time Source
SBCZ TAF 2021/05/14 12:03 UTC NOAA

TAF TAF SBCZ 140900Z 1412/1512 12007KT 7000 SCT012 TX28/1418Z TN22/1509Z
BECMG 1416/1418 16010KT 9999 SCT023 FEW030TCU PROB40 1418/1421 5000 TSRA BKN018 FEW027CB
BECMG 1422/1423 18005KT SCT025
RMK PGU

Example: see airport list